AAL715 KDFW-KPNS
Flight info
| Callsign | AAL715 |
|---|---|
| Flight time | N/A |
| Altitude | 31000 |
| Route | FORCK3 FORCK ELD MEI SHYRE PENSI |
| Aircraft | A319/M-SDE3FGHIRWY/LB1 |
Departure
| Time | 2026-04-30 15:14 |
|---|---|
| Airport | Dallas Fort Worth International Airport (KDFW) |
Arrival
| Time | N/A |
|---|---|
| Airport | Pensacola International Airport (KPNS) |
| Time | Latitude | Longitude | Altitude | Speed | Heading |
|---|---|---|---|---|---|
| 2026-04-30 14:36 | 32.89477 | -97.03785 | 587 ft | 0 kts | 353° |
| 2026-04-30 15:01 | 32.89475 | -97.03785 | 559 ft | 3 kts | 353° |
| 2026-04-30 15:02 | 32.89450 | -97.03781 | 587 ft | 2 kts | 353° |
| 2026-04-30 15:02 | 32.89430 | -97.03781 | 587 ft | 4 kts | 39° |
| 2026-04-30 15:03 | 32.89422 | -97.03775 | 587 ft | 0 kts | 91° |
| 2026-04-30 15:06 | 32.89422 | -97.03769 | 587 ft | 2 kts | 91° |
| 2026-04-30 15:06 | 32.89421 | -97.03699 | 587 ft | 7 kts | 91° |
| 2026-04-30 15:07 | 32.89419 | -97.03551 | 587 ft | 11 kts | 91° |
| 2026-04-30 15:07 | 32.89417 | -97.03387 | 587 ft | 7 kts | 90° |
| 2026-04-30 15:08 | 32.89306 | -97.03318 | 584 ft | 14 kts | 180° |
| 2026-04-30 15:08 | 32.88953 | -97.03321 | 582 ft | 18 kts | 180° |
| 2026-04-30 15:09 | 32.88699 | -97.03322 | 583 ft | 20 kts | 180° |
| 2026-04-30 15:09 | 32.88435 | -97.03288 | 579 ft | 19 kts | 179° |
| 2026-04-30 15:10 | 32.88149 | -97.03290 | 577 ft | 22 kts | 180° |
| 2026-04-30 15:11 | 32.87903 | -97.03141 | 579 ft | 2 kts | 90° |
| 2026-04-30 15:11 | 32.87905 | -97.03031 | 572 ft | 11 kts | 77° |
| 2026-04-30 15:12 | 32.88935 | -97.03002 | 576 ft | 122 kts | 0° |
| 2026-04-30 15:13 | 32.91113 | -97.02993 | 1149 ft | 166 kts | 1° |
| 2026-04-30 15:14 | 32.96171 | -97.01632 | 3085 ft | 232 kts | 21° |
| 2026-04-30 15:14 | 33.01208 | -96.99648 | 5764 ft | 267 kts | 43° |
| 2026-04-30 15:16 | 33.01298 | -96.88404 | 9404 ft | 305 kts | 101° |
| 2026-04-30 15:17 | 32.97683 | -96.78278 | 11061 ft | 368 kts | 117° |
| 2026-04-30 15:18 | 32.92037 | -96.63957 | 14173 ft | 395 kts | 117° |
| 2026-04-30 15:19 | 32.88419 | -96.54980 | 15923 ft | 407 kts | 117° |